Terminal Aerodrome Forecast
Issued by NWS Bismarck, ND

Home | Current Version | Previous Version | Graphics & Text | Print | Product List | Glossary On
Versions: 1 2 3 4 5 6 7 8 9 10 11 12 13 14 15 16 17 18 19 20
000
FTUS43 KBIS 181000 AAA
TAFBIS
TAF AMD
KBIS 181052Z 1811/1906 14007KT P6SM -SN OVC010
      TEMPO 1811/1812 OVC006
     FM181200 15007KT P6SM -SN OVC006
      TEMPO 1814/1818 3SM -SN BR OVC008
     FM182000 18006KT P6SM OVC015=

USA.gov is the U.S. government's official web portal to all federal, state and local government web resources and services.